sensor_id;sensor_type;location;lat;lon;timestamp;pressure;altitude;pressure_sealevel;temperature;humidity
57644;BME280;43474;46.510;6.686;2023-04-26T00:01:55;96414.44;;;5.83;100.00
57644;BME280;43474;46.510;6.686;2023-04-26T00:04:22;96436.09;;;5.91;100.00
57644;BME280;43474;46.510;6.686;2023-04-26T00:06:48;96433.66;;;5.83;100.00
57644;BME280;43474;46.510;6.686;2023-04-26T00:09:14;96422.94;;;5.71;100.00
57644;BME280;43474;46.510;6.686;2023-04-26T00:11:39;96435.69;;;5.75;100.00
57644;BME280;43474;46.510;6.686;2023-04-26T00:14:05;96427.63;;;5.56;100.00
57644;BME280;43474;46.510;6.686;2023-04-26T00:16:31;96436.97;;;5.52;100.00
57644;BME280;43474;46.510;6.686;2023-04-26T00:18:56;96444.22;;;5.50;100.00
57644;BME280;43474;46.510;6.686;2023-04-26T00:21:22;96440.78;;;5.36;100.00
57644;BME280;43474;46.510;6.686;2023-04-26T00:23:47;96441.81;;;5.35;100.00
57644;BME280;43474;46.510;6.686;2023-04-26T00:26:13;96439.19;;;5.35;100.00
57644;BME280;43474;46.510;6.686;2023-04-26T00:28:38;96449.91;;;5.47;100.00
57644;BME280;43474;46.510;6.686;2023-04-26T00:31:04;96442.81;;;5.41;100.00
57644;BME280;43474;46.510;6.686;2023-04-26T00:33:30;96428.88;;;5.40;100.00
57644;BME280;43474;46.510;6.686;2023-04-26T00:35:56;96429.69;;;5.48;100.00
57644;BME280;43474;46.510;6.686;2023-04-26T00:38:21;96429.88;;;5.39;100.00
57644;BME280;43474;46.510;6.686;2023-04-26T00:40:47;96430.69;;;5.33;100.00
57644;BME280;43474;46.510;6.686;2023-04-26T00:43:12;96443.41;;;5.36;100.00
57644;BME280;43474;46.510;6.686;2023-04-26T00:45:38;96431.72;;;5.32;100.00
57644;BME280;43474;46.510;6.686;2023-04-26T00:48:04;96432.72;;;5.44;100.00
57644;BME280;43474;46.510;6.686;2023-04-26T00:50:30;96435.34;;;5.44;100.00
57644;BME280;43474;46.510;6.686;2023-04-26T00:52:56;96420.56;;;5.37;100.00
57644;BME280;43474;46.510;6.686;2023-04-26T00:55:23;96429.28;;;5.31;100.00
57644;BME280;43474;46.510;6.686;2023-04-26T00:57:51;96428.47;;;5.37;100.00
57644;BME280;43474;46.510;6.686;2023-04-26T01:00:17;96420.59;;;5.24;100.00
57644;BME280;43474;46.510;6.686;2023-04-26T01:02:43;96419.19;;;5.28;100.00
57644;BME280;43474;46.510;6.686;2023-04-26T01:05:08;96421.41;;;5.17;100.00
57644;BME280;43474;46.510;6.686;2023-04-26T01:07:35;96426.25;;;5.14;100.00
57644;BME280;43474;46.510;6.686;2023-04-26T01:10:02;96425.03;;;5.16;100.00
57644;BME280;43474;46.510;6.686;2023-04-26T01:12:29;96425.25;;;5.08;100.00
57644;BME280;43474;46.510;6.686;2023-04-26T01:14:56;96428.06;;;5.20;100.00
57644;BME280;43474;46.510;6.686;2023-04-26T01:17:23;96427.84;;;5.22;100.00
57644;BME280;43474;46.510;6.686;2023-04-26T01:19:50;96424.25;;;5.23;100.00
57644;BME280;43474;46.510;6.686;2023-04-26T01:22:16;96429.09;;;5.19;100.00
57644;BME280;43474;46.510;6.686;2023-04-26T01:24:44;96411.69;;;4.91;100.00
57644;BME280;43474;46.510;6.686;2023-04-26T01:27:10;96430.47;;;5.02;100.00
57644;BME280;43474;46.510;6.686;2023-04-26T01:29:36;96419.38;;;4.93;100.00
57644;BME280;43474;46.510;6.686;2023-04-26T01:32:02;96420.41;;;4.99;100.00
57644;BME280;43474;46.510;6.686;2023-04-26T01:34:28;96409.06;;;4.85;100.00
57644;BME280;43474;46.510;6.686;2023-04-26T01:36:53;96429.09;;;4.92;100.00
57644;BME280;43474;46.510;6.686;2023-04-26T01:39:19;96424.84;;;4.98;100.00
57644;BME280;43474;46.510;6.686;2023-04-26T01:41:45;96423.19;;;4.90;100.00
57644;BME280;43474;46.510;6.686;2023-04-26T01:44:10;96423.19;;;4.84;100.00
57644;BME280;43474;46.510;6.686;2023-04-26T01:46:36;96419.38;;;4.93;100.00
57644;BME280;43474;46.510;6.686;2023-04-26T01:49:02;96421.78;;;4.75;100.00
57644;BME280;43474;46.510;6.686;2023-04-26T01:51:27;96438.16;;;4.83;100.00
57644;BME280;43474;46.510;6.686;2023-04-26T01:53:53;96429.84;;;4.80;100.00
57644;BME280;43474;46.510;6.686;2023-04-26T01:56:19;96427.03;;;4.75;100.00
57644;BME280;43474;46.510;6.686;2023-04-26T01:58:45;96415.09;;;4.65;100.00
57644;BME280;43474;46.510;6.686;2023-04-26T02:01:11;96435.06;;;4.66;100.00
57644;BME280;43474;46.510;6.686;2023-04-26T02:03:37;96408.97;;;4.38;100.00
57644;BME280;43474;46.510;6.686;2023-04-26T02:06:02;96413.81;;;4.41;100.00
57644;BME280;43474;46.510;6.686;2023-04-26T02:08:28;96416.63;;;4.33;100.00
57644;BME280;43474;46.510;6.686;2023-04-26T02:10:54;96420.88;;;4.34;100.00
57644;BME280;43474;46.510;6.686;2023-04-26T02:13:20;96424.72;;;4.45;100.00
57644;BME280;43474;46.510;6.686;2023-04-26T02:15:47;96420.25;;;4.32;100.00
57644;BME280;43474;46.510;6.686;2023-04-26T02:18:13;96418.22;;;4.28;100.00
57644;BME280;43474;46.510;6.686;2023-04-26T02:20:43;96402.88;;;4.18;100.00
57644;BME280;43474;46.510;6.686;2023-04-26T02:23:10;96420.66;;;4.29;100.00
57644;BME280;43474;46.510;6.686;2023-04-26T02:25:36;96409.34;;;4.29;100.00
57644;BME280;43474;46.510;6.686;2023-04-26T02:28:03;96417.81;;;4.31;100.00
57644;BME280;43474;46.510;6.686;2023-04-26T02:30:29;96422.84;;;4.26;100.00
57644;BME280;43474;46.510;6.686;2023-04-26T02:32:55;96404.25;;;4.14;100.00
57644;BME280;43474;46.510;6.686;2023-04-26T02:35:20;96423.28;;;4.36;100.00
57644;BME280;43474;46.510;6.686;2023-04-26T02:37:46;96394.22;;;4.31;100.00
57644;BME280;43474;46.510;6.686;2023-04-26T02:40:14;96410.78;;;4.38;100.00
57644;BME280;43474;46.510;6.686;2023-04-26T02:42:39;96426.75;;;4.50;100.00
57644;BME280;43474;46.510;6.686;2023-04-26T02:45:06;96402.50;;;4.34;100.00
57644;BME280;43474;46.510;6.686;2023-04-26T02:47:32;96401.28;;;4.37;100.00
57644;BME280;43474;46.510;6.686;2023-04-26T02:49:58;96393.63;;;4.29;100.00
57644;BME280;43474;46.510;6.686;2023-04-26T02:52:23;96412.00;;;4.42;100.00
57644;BME280;43474;46.510;6.686;2023-04-26T02:54:49;96416.22;;;4.36;100.00
57644;BME280;43474;46.510;6.686;2023-04-26T02:57:15;96412.63;;;4.44;100.00
57644;BME280;43474;46.510;6.686;2023-04-26T02:59:40;96403.34;;;4.48;100.00
57644;BME280;43474;46.510;6.686;2023-04-26T03:02:06;96413.06;;;4.61;100.00
57644;BME280;43474;46.510;6.686;2023-04-26T03:04:32;96415.09;;;4.72;100.00
57644;BME280;43474;46.510;6.686;2023-04-26T03:06:58;96413.47;;;4.64;100.00
57644;BME280;43474;46.510;6.686;2023-04-26T03:09:24;96411.88;;;4.77;100.00
57644;BME280;43474;46.510;6.686;2023-04-26T03:11:50;96410.03;;;4.77;100.00
57644;BME280;43474;46.510;6.686;2023-04-26T03:14:16;96400.34;;;4.64;100.00
57644;BME280;43474;46.510;6.686;2023-04-26T03:16:43;96410.84;;;4.64;100.00
57644;BME280;43474;46.510;6.686;2023-04-26T03:19:08;96399.34;;;4.65;100.00
57644;BME280;43474;46.510;6.686;2023-04-26T03:21:34;96398.91;;;4.62;100.00
57644;BME280;43474;46.510;6.686;2023-04-26T03:24:00;96406.41;;;4.65;100.00
57644;BME280;43474;46.510;6.686;2023-04-26T03:26:26;96408.44;;;4.63;100.00
57644;BME280;43474;46.510;6.686;2023-04-26T03:28:51;96421.94;;;4.60;100.00
57644;BME280;43474;46.510;6.686;2023-04-26T03:31:17;96408.78;;;4.47;100.00
57644;BME280;43474;46.510;6.686;2023-04-26T03:33:43;96420.91;;;4.48;100.00
57644;BME280;43474;46.510;6.686;2023-04-26T03:36:09;96404.50;;;4.32;100.00
57644;BME280;43474;46.510;6.686;2023-04-26T03:38:34;96412.78;;;4.36;100.00
57644;BME280;43474;46.510;6.686;2023-04-26T03:41:00;96393.78;;;4.27;100.00
57644;BME280;43474;46.510;6.686;2023-04-26T03:43:25;96421.84;;;4.27;100.00
57644;BME280;43474;46.510;6.686;2023-04-26T03:45:51;96408.91;;;4.19;100.00
57644;BME280;43474;46.510;6.686;2023-04-26T03:48:17;96408.84;;;4.05;100.00
57644;BME280;43474;46.510;6.686;2023-04-26T03:50:42;96408.22;;;3.97;100.00
57644;BME280;43474;46.510;6.686;2023-04-26T03:53:11;96395.44;;;3.87;100.00
57644;BME280;43474;46.510;6.686;2023-04-26T03:55:36;96413.63;;;3.88;100.00
57644;BME280;43474;46.510;6.686;2023-04-26T03:58:02;96406.13;;;3.79;100.00
57644;BME280;43474;46.510;6.686;2023-04-26T04:00:41;96386.50;;;3.68;100.00
57644;BME280;43474;46.510;6.686;2023-04-26T04:03:07;96408.53;;;3.80;100.00
57644;BME280;43474;46.510;6.686;2023-04-26T04:05:33;96395.19;;;3.69;100.00
57644;BME280;43474;46.510;6.686;2023-04-26T04:07:59;96383.50;;;3.71;100.00
57644;BME280;43474;46.510;6.686;2023-04-26T04:10:25;96381.63;;;3.58;100.00
57644;BME280;43474;46.510;6.686;2023-04-26T04:12:50;96404.03;;;3.68;100.00
57644;BME280;43474;46.510;6.686;2023-04-26T04:15:18;96380.72;;;3.45;100.00
57644;BME280;43474;46.510;6.686;2023-04-26T04:17:43;96377.25;;;3.37;100.00
57644;BME280;43474;46.510;6.686;2023-04-26T04:20:10;96411.06;;;3.60;100.00
57644;BME280;43474;46.510;6.686;2023-04-26T04:22:35;96396.66;;;3.43;100.00
57644;BME280;43474;46.510;6.686;2023-04-26T04:25:01;96397.47;;;3.44;100.00
57644;BME280;43474;46.510;6.686;2023-04-26T04:27:28;96406.53;;;3.48;100.00
57644;BME280;43474;46.510;6.686;2023-04-26T04:29:54;96417.88;;;3.55;100.00
57644;BME280;43474;46.510;6.686;2023-04-26T04:32:21;96407.81;;;3.58;100.00
57644;BME280;43474;46.510;6.686;2023-04-26T04:34:48;96422.78;;;3.65;100.00
57644;BME280;43474;46.510;6.686;2023-04-26T04:37:14;96434.31;;;3.77;100.00
57644;BME280;43474;46.510;6.686;2023-04-26T04:39:40;96432.78;;;3.89;100.00
57644;BME280;43474;46.510;6.686;2023-04-26T04:42:06;96437.41;;;3.87;100.00
57644;BME280;43474;46.510;6.686;2023-04-26T04:44:32;96441.25;;;3.91;100.00
57644;BME280;43474;46.510;6.686;2023-04-26T04:46:58;96436.00;;;3.84;100.00
57644;BME280;43474;46.510;6.686;2023-04-26T04:49:24;96436.66;;;3.93;100.00
57644;BME280;43474;46.510;6.686;2023-04-26T04:51:50;96423.91;;;3.90;100.00
57644;BME280;43474;46.510;6.686;2023-04-26T04:54:17;96429.34;;;3.88;100.00
57644;BME280;43474;46.510;6.686;2023-04-26T04:56:43;96444.91;;;3.97;100.00
57644;BME280;43474;46.510;6.686;2023-04-26T04:59:09;96439.06;;;3.95;100.00
57644;BME280;43474;46.510;6.686;2023-04-26T05:01:35;96444.50;;;3.93;100.00
57644;BME280;43474;46.510;6.686;2023-04-26T05:04:04;96452.41;;;4.00;100.00
57644;BME280;43474;46.510;6.686;2023-04-26T05:06:29;96436.66;;;3.93;100.00
57644;BME280;43474;46.510;6.686;2023-04-26T05:08:57;96461.44;;;3.97;100.00
57644;BME280;43474;46.510;6.686;2023-04-26T05:11:22;96456.41;;;3.96;100.00
57644;BME280;43474;46.510;6.686;2023-04-26T05:13:48;96452.75;;;3.90;100.00
57644;BME280;43474;46.510;6.686;2023-04-26T05:16:14;96449.91;;;3.85;100.00
57644;BME280;43474;46.510;6.686;2023-04-26T05:18:40;96455.13;;;3.85;100.00
57644;BME280;43474;46.510;6.686;2023-04-26T05:21:05;96457.56;;;3.86;100.00
57644;BME280;43474;46.510;6.686;2023-04-26T05:23:32;96458.38;;;3.87;100.00
57644;BME280;43474;46.510;6.686;2023-04-26T05:26:04;96465.72;;;4.05;100.00
57644;BME280;43474;46.510;6.686;2023-04-26T05:28:30;96474.44;;;4.12;100.00
57644;BME280;43474;46.510;6.686;2023-04-26T05:30:56;96470.41;;;4.09;100.00
57644;BME280;43474;46.510;6.686;2023-04-26T05:33:22;96482.16;;;4.27;100.00
57644;BME280;43474;46.510;6.686;2023-04-26T05:35:48;96446.03;;;4.22;100.00
57644;BME280;43474;46.510;6.686;2023-04-26T05:38:14;96470.34;;;4.44;100.00
57644;BME280;43474;46.510;6.686;2023-04-26T05:40:39;96467.16;;;4.55;100.00
57644;BME280;43474;46.510;6.686;2023-04-26T05:43:05;96454.84;;;4.56;100.00
57644;BME280;43474;46.510;6.686;2023-04-26T05:45:30;96464.38;;;4.70;100.00
57644;BME280;43474;46.510;6.686;2023-04-26T05:47:56;96465.22;;;4.97;100.00
57644;BME280;43474;46.510;6.686;2023-04-26T05:50:21;96449.69;;;5.02;100.00
57644;BME280;43474;46.510;6.686;2023-04-26T05:52:47;96462.03;;;5.28;100.00
57644;BME280;43474;46.510;6.686;2023-04-26T05:55:12;96466.28;;;5.49;100.00
57644;BME280;43474;46.510;6.686;2023-04-26T05:57:38;96463.44;;;5.64;100.00
57644;BME280;43474;46.510;6.686;2023-04-26T06:00:05;96467.25;;;5.94;100.00
57644;BME280;43474;46.510;6.686;2023-04-26T06:02:34;96464.34;;;6.22;100.00
57644;BME280;43474;46.510;6.686;2023-04-26T06:04:59;96468.88;;;6.54;100.00
57644;BME280;43474;46.510;6.686;2023-04-26T06:07:25;96480.88;;;6.81;100.00
57644;BME280;43474;46.510;6.686;2023-04-26T06:09:50;96484.09;;;7.21;100.00
57644;BME280;43474;46.510;6.686;2023-04-26T06:12:16;96484.50;;;8.37;100.00
57644;BME280;43474;46.510;6.686;2023-04-26T06:14:42;96461.31;;;8.39;100.00
57644;BME280;43474;46.510;6.686;2023-04-26T06:17:07;96472.69;;;8.39;100.00
57644;BME280;43474;46.510;6.686;2023-04-26T06:19:33;96472.91;;;8.38;100.00
57644;BME280;43474;46.510;6.686;2023-04-26T06:21:59;96484.53;;;8.30;100.00
57644;BME280;43474;46.510;6.686;2023-04-26T06:24:24;96483.28;;;7.96;100.00
57644;BME280;43474;46.510;6.686;2023-04-26T06:26:50;96501.91;;;8.01;100.00
57644;BME280;43474;46.510;6.686;2023-04-26T06:29:16;96491.63;;;7.93;100.00
57644;BME280;43474;46.510;6.686;2023-04-26T06:31:42;96494.28;;;8.29;100.00
57644;BME280;43474;46.510;6.686;2023-04-26T06:34:07;96472.72;;;8.99;100.00
57644;BME280;43474;46.510;6.686;2023-04-26T06:36:33;96486.88;;;9.35;100.00
57644;BME280;43474;46.510;6.686;2023-04-26T06:38:58;96494.25;;;9.45;100.00
57644;BME280;43474;46.510;6.686;2023-04-26T06:41:24;96478.16;;;9.46;100.00
57644;BME280;43474;46.510;6.686;2023-04-26T06:43:50;96483.72;;;9.80;100.00
57644;BME280;43474;46.510;6.686;2023-04-26T06:46:15;96489.69;;;9.75;100.00
57644;BME280;43474;46.510;6.686;2023-04-26T06:48:41;96480.81;;;10.05;100.00
57644;BME280;43474;46.510;6.686;2023-04-26T06:51:07;96478.66;;;10.25;100.00
57644;BME280;43474;46.510;6.686;2023-04-26T06:53:34;96493.16;;;10.75;100.00
57644;BME280;43474;46.510;6.686;2023-04-26T06:56:00;96483.03;;;11.46;100.00
57644;BME280;43474;46.510;6.686;2023-04-26T06:58:26;96493.06;;;11.44;100.00
57644;BME280;43474;46.510;6.686;2023-04-26T07:00:51;96483.19;;;11.39;98.13
57644;BME280;43474;46.510;6.686;2023-04-26T07:03:17;96482.72;;;11.13;100.00
57644;BME280;43474;46.510;6.686;2023-04-26T07:05:42;96467.56;;;11.26;100.00
57644;BME280;43474;46.510;6.686;2023-04-26T07:08:08;96471.75;;;11.38;99.62
57644;BME280;43474;46.510;6.686;2023-04-26T07:10:33;96475.47;;;11.37;96.45
57644;BME280;43474;46.510;6.686;2023-04-26T07:12:59;96482.94;;;12.08;93.42
57644;BME280;43474;46.510;6.686;2023-04-26T07:15:25;96486.13;;;12.92;95.48
57644;BME280;43474;46.510;6.686;2023-04-26T07:17:50;96476.72;;;13.61;84.42
57644;BME280;43474;46.510;6.686;2023-04-26T07:20:16;96476.25;;;13.69;86.42
57644;BME280;43474;46.510;6.686;2023-04-26T07:22:45;96484.59;;;13.78;82.48
57644;BME280;43474;46.510;6.686;2023-04-26T07:25:11;96468.69;;;13.56;82.97
57644;BME280;43474;46.510;6.686;2023-04-26T07:27:37;96470.91;;;14.06;79.02
57644;BME280;43474;46.510;6.686;2023-04-26T07:30:03;96473.00;;;14.46;79.23
57644;BME280;43474;46.510;6.686;2023-04-26T07:32:30;96476.13;;;14.91;79.94
57644;BME280;43474;46.510;6.686;2023-04-26T07:34:55;96461.81;;;15.28;75.84
57644;BME280;43474;46.510;6.686;2023-04-26T07:37:21;96470.94;;;15.62;72.80
57644;BME280;43474;46.510;6.686;2023-04-26T07:39:47;96460.44;;;16.37;68.80
57644;BME280;43474;46.510;6.686;2023-04-26T07:42:13;96436.66;;;16.20;67.79
57644;BME280;43474;46.510;6.686;2023-04-26T07:44:39;96444.03;;;16.59;63.64
57644;BME280;43474;46.510;6.686;2023-04-26T07:47:10;96430.31;;;16.81;62.96
57644;BME280;43474;46.510;6.686;2023-04-26T07:49:36;96423.81;;;16.97;62.82
57644;BME280;43474;46.510;6.686;2023-04-26T07:52:01;96429.88;;;17.08;61.63
57644;BME280;43474;46.510;6.686;2023-04-26T07:54:27;96444.44;;;16.97;59.58
57644;BME280;43474;46.510;6.686;2023-04-26T07:56:53;96424.03;;;17.06;56.38
57644;BME280;43474;46.510;6.686;2023-04-26T07:59:20;96437.75;;;17.34;59.18
57644;BME280;43474;46.510;6.686;2023-04-26T08:01:45;96412.84;;;17.67;57.06
57644;BME280;43474;46.510;6.686;2023-04-26T08:04:11;96442.50;;;17.81;55.77
57644;BME280;43474;46.510;6.686;2023-04-26T08:06:36;96430.91;;;17.56;53.79
57644;BME280;43474;46.510;6.686;2023-04-26T08:09:03;96396.16;;;17.46;57.18
57644;BME280;43474;46.510;6.686;2023-04-26T08:11:29;96435.88;;;17.73;54.13
57644;BME280;43474;46.510;6.686;2023-04-26T08:13:55;96441.84;;;17.94;58.25
57644;BME280;43474;46.510;6.686;2023-04-26T08:16:20;96433.97;;;18.03;53.83
57644;BME280;43474;46.510;6.686;2023-04-26T08:18:46;96436.88;;;17.43;53.73
57644;BME280;43474;46.510;6.686;2023-04-26T08:21:12;96442.66;;;17.61;54.06
57644;BME280;43474;46.510;6.686;2023-04-26T08:23:38;96437.25;;;17.31;54.10
57644;BME280;43474;46.510;6.686;2023-04-26T08:26:03;96446.69;;;17.19;51.08
57644;BME280;43474;46.510;6.686;2023-04-26T08:28:29;96428.56;;;17.05;54.42
57644;BME280;43474;46.510;6.686;2023-04-26T08:30:55;96444.19;;;17.33;54.16
57644;BME280;43474;46.510;6.686;2023-04-26T08:33:22;96452.91;;;17.48;50.56
57644;BME280;43474;46.510;6.686;2023-04-26T08:35:47;96444.47;;;17.31;53.53
57644;BME280;43474;46.510;6.686;2023-04-26T08:38:13;96444.19;;;17.33;52.52
57644;BME280;43474;46.510;6.686;2023-04-26T08:40:40;96443.38;;;17.37;54.39
57644;BME280;43474;46.510;6.686;2023-04-26T08:43:09;96421.69;;;17.68;55.67
57644;BME280;43474;46.510;6.686;2023-04-26T08:45:37;96438.13;;;17.56;55.32
57644;BME280;43474;46.510;6.686;2023-04-26T08:48:05;96444.59;;;17.50;52.08
57644;BME280;43474;46.510;6.686;2023-04-26T08:50:37;96443.19;;;17.23;49.47
57644;BME280;43474;46.510;6.686;2023-04-26T08:53:04;96431.69;;;16.68;53.24
57644;BME280;43474;46.510;6.686;2023-04-26T08:55:31;96431.78;;;17.08;55.77
57644;BME280;43474;46.510;6.686;2023-04-26T08:57:59;96442.84;;;17.30;53.89
57644;BME280;43474;46.510;6.686;2023-04-26T09:00:25;96439.16;;;17.60;55.87
57644;BME280;43474;46.510;6.686;2023-04-26T09:02:51;96437.28;;;17.61;54.77
57644;BME280;43474;46.510;6.686;2023-04-26T09:05:21;96447.28;;;17.50;53.69
57644;BME280;43474;46.510;6.686;2023-04-26T09:07:49;96438.00;;;17.37;54.33
57644;BME280;43474;46.510;6.686;2023-04-26T09:10:19;96441.53;;;16.83;55.35
57644;BME280;43474;46.510;6.686;2023-04-26T09:12:46;96453.75;;;16.99;55.95
57644;BME280;43474;46.510;6.686;2023-04-26T09:15:13;96450.41;;;17.23;56.11
57644;BME280;43474;46.510;6.686;2023-04-26T09:17:40;96440.78;;;16.67;55.20
57644;BME280;43474;46.510;6.686;2023-04-26T09:20:22;96447.75;;;16.63;58.72
57644;BME280;43474;46.510;6.686;2023-04-26T09:22:50;96454.19;;;16.72;63.46
57644;BME280;43474;46.510;6.686;2023-04-26T09:25:18;96450.56;;;16.97;63.55
57644;BME280;43474;46.510;6.686;2023-04-26T09:27:44;96432.63;;;16.98;57.60
57644;BME280;43474;46.510;6.686;2023-04-26T09:30:15;96448.91;;;16.42;56.77
57644;BME280;43474;46.510;6.686;2023-04-26T09:32:52;96453.28;;;16.07;58.88
57644;BME280;43474;46.510;6.686;2023-04-26T09:35:37;96440.63;;;16.43;61.06
57644;BME280;43474;46.510;6.686;2023-04-26T09:38:14;96450.41;;;16.78;57.96
57644;BME280;43474;46.510;6.686;2023-04-26T09:43:08;96438.38;;;16.66;62.72
57644;BME280;43474;46.510;6.686;2023-04-26T09:45:52;96442.59;;;16.87;60.26
57644;BME280;43474;46.510;6.686;2023-04-26T09:50:52;96437.84;;;16.74;57.14
57644;BME280;43474;46.510;6.686;2023-04-26T09:53:33;96434.03;;;16.85;63.12
57644;BME280;43474;46.510;6.686;2023-04-26T09:58:53;96420.59;;;16.95;60.72
57644;BME280;43474;46.510;6.686;2023-04-26T10:01:23;96425.53;;;16.73;58.23
57644;BME280;43474;46.510;6.686;2023-04-26T10:03:50;96436.59;;;16.51;60.79
57644;BME280;43474;46.510;6.686;2023-04-26T10:06:16;96433.91;;;16.51;60.89
57644;BME280;43474;46.510;6.686;2023-04-26T10:08:43;96422.00;;;16.83;62.86
57644;BME280;43474;46.510;6.686;2023-04-26T10:11:09;96417.41;;;16.93;64.46
57644;BME280;43474;46.510;6.686;2023-04-26T10:13:36;96414.22;;;16.91;58.66
57644;BME280;43474;46.510;6.686;2023-04-26T10:16:02;96427.13;;;17.57;61.87
57644;BME280;43474;46.510;6.686;2023-04-26T10:18:29;96437.56;;;17.20;57.76
57644;BME280;43474;46.510;6.686;2023-04-26T10:20:59;96423.22;;;17.00;60.57
57644;BME280;43474;46.510;6.686;2023-04-26T10:23:26;96426.47;;;16.97;58.33
57644;BME280;43474;46.510;6.686;2023-04-26T10:25:53;96413.59;;;16.99;58.11
57644;BME280;43474;46.510;6.686;2023-04-26T10:31:11;96409.03;;;17.39;58.69
57644;BME280;43474;46.510;6.686;2023-04-26T10:33:36;96412.22;;;17.46;61.15
57644;BME280;43474;46.510;6.686;2023-04-26T10:38:34;96403.75;;;17.29;60.22
57644;BME280;43474;46.510;6.686;2023-04-26T10:41:28;96406.78;;;17.22;59.41
57644;BME280;43474;46.510;6.686;2023-04-26T10:43:55;96387.28;;;17.51;58.69
57644;BME280;43474;46.510;6.686;2023-04-26T10:46:35;96391.94;;;18.22;59.70
57644;BME280;43474;46.510;6.686;2023-04-26T10:49:18;96380.81;;;17.52;53.47
57644;BME280;43474;46.510;6.686;2023-04-26T10:54:45;96374.81;;;17.36;51.54
57644;BME280;43474;46.510;6.686;2023-04-26T10:57:11;96394.03;;;17.72;53.42
57644;BME280;43474;46.510;6.686;2023-04-26T10:59:37;96378.91;;;17.87;51.22
57644;BME280;43474;46.510;6.686;2023-04-26T11:02:02;96363.75;;;17.72;54.78
57644;BME280;43474;46.510;6.686;2023-04-26T11:04:57;96366.94;;;18.03;52.93
57644;BME280;43474;46.510;6.686;2023-04-26T11:07:36;96381.53;;;18.40;52.36
57644;BME280;43474;46.510;6.686;2023-04-26T11:10:09;96369.09;;;18.25;50.77
57644;BME280;43474;46.510;6.686;2023-04-26T11:12:34;96372.69;;;18.39;51.38
57644;BME280;43474;46.510;6.686;2023-04-26T11:15:01;96366.38;;;18.06;52.20
57644;BME280;43474;46.510;6.686;2023-04-26T11:17:26;96387.44;;;18.18;52.41
57644;BME280;43474;46.510;6.686;2023-04-26T11:19:52;96377.72;;;18.22;51.32
57644;BME280;43474;46.510;6.686;2023-04-26T11:22:20;96389.88;;;18.14;52.21
57644;BME280;43474;46.510;6.686;2023-04-26T11:24:46;96382.81;;;17.70;49.08
57644;BME280;43474;46.510;6.686;2023-04-26T11:27:12;96373.88;;;17.17;50.81
57644;BME280;43474;46.510;6.686;2023-04-26T11:29:38;96378.53;;;17.35;48.79
57644;BME280;43474;46.510;6.686;2023-04-26T11:32:04;96378.66;;;17.54;48.61
57644;BME280;43474;46.510;6.686;2023-04-26T11:36:55;96367.47;;;17.47;50.98
57644;BME280;43474;46.510;6.686;2023-04-26T11:39:21;96377.22;;;16.98;51.45
57644;BME280;43474;46.510;6.686;2023-04-26T11:41:47;96368.03;;;17.10;52.71
57644;BME280;43474;46.510;6.686;2023-04-26T11:44:17;96364.44;;;17.24;51.35
57644;BME280;43474;46.510;6.686;2023-04-26T11:46:43;96361.03;;;16.74;50.15
57644;BME280;43474;46.510;6.686;2023-04-26T11:49:09;96355.13;;;16.77;51.07
57644;BME280;43474;46.510;6.686;2023-04-26T11:51:35;96348.84;;;16.97;47.84
57644;BME280;43474;46.510;6.686;2023-04-26T11:54:01;96353.78;;;17.14;52.56
57644;BME280;43474;46.510;6.686;2023-04-26T11:56:26;96354.41;;;17.06;51.92
57644;BME280;43474;46.510;6.686;2023-04-26T11:58:52;96357.38;;;16.99;52.99
57644;BME280;43474;46.510;6.686;2023-04-26T12:01:22;96338.78;;;16.79;53.97
57644;BME280;43474;46.510;6.686;2023-04-26T12:03:53;96345.28;;;17.41;52.32
57644;BME280;43474;46.510;6.686;2023-04-26T12:06:19;96342.44;;;17.27;49.56
57644;BME280;43474;46.510;6.686;2023-04-26T12:08:49;96342.75;;;17.26;49.08
57644;BME280;43474;46.510;6.686;2023-04-26T12:11:16;96330.88;;;17.03;49.69
57644;BME280;43474;46.510;6.686;2023-04-26T12:13:41;96336.28;;;16.93;51.10
57644;BME280;43474;46.510;6.686;2023-04-26T12:16:07;96334.59;;;17.07;53.88
57644;BME280;43474;46.510;6.686;2023-04-26T12:18:33;96331.91;;;17.07;48.13
57644;BME280;43474;46.510;6.686;2023-04-26T12:20:59;96331.19;;;16.96;51.88
57644;BME280;43474;46.510;6.686;2023-04-26T12:23:25;96329.16;;;17.46;47.01
57644;BME280;43474;46.510;6.686;2023-04-26T12:25:55;96314.78;;;17.37;48.61
57644;BME280;43474;46.510;6.686;2023-04-26T12:28:22;96322.13;;;17.55;47.90
57644;BME280;43474;46.510;6.686;2023-04-26T12:30:48;96334.97;;;17.24;47.26
57644;BME280;43474;46.510;6.686;2023-04-26T12:33:14;96329.44;;;17.45;47.25
57644;BME280;43474;46.510;6.686;2023-04-26T12:35:40;96330.59;;;17.63;51.45
57644;BME280;43474;46.510;6.686;2023-04-26T12:38:06;96323.19;;;18.07;50.30
57644;BME280;43474;46.510;6.686;2023-04-26T12:40:32;96319.16;;;18.29;49.54
57644;BME280;43474;46.510;6.686;2023-04-26T12:42:58;96325.50;;;18.57;49.31
57644;BME280;43474;46.510;6.686;2023-04-26T12:45:24;96333.22;;;18.21;46.75
57644;BME280;43474;46.510;6.686;2023-04-26T12:47:52;96339.56;;;18.49;47.43
57644;BME280;43474;46.510;6.686;2023-04-26T12:50:18;96327.16;;;18.53;44.51
57644;BME280;43474;46.510;6.686;2023-04-26T12:52:44;96328.63;;;18.45;43.67
57644;BME280;43474;46.510;6.686;2023-04-26T12:55:10;96314.09;;;18.46;43.76
57644;BME280;43474;46.510;6.686;2023-04-26T12:57:38;96324.56;;;18.67;44.79
57644;BME280;43474;46.510;6.686;2023-04-26T13:00:04;96325.28;;;19.10;42.88
57644;BME280;43474;46.510;6.686;2023-04-26T13:02:31;96305.47;;;19.06;44.21
57644;BME280;43474;46.510;6.686;2023-04-26T13:04:57;96307.78;;;19.13;42.94
57644;BME280;43474;46.510;6.686;2023-04-26T13:07:23;96306.63;;;18.43;41.09
57644;BME280;43474;46.510;6.686;2023-04-26T13:09:48;96306.41;;;18.21;44.93
57644;BME280;43474;46.510;6.686;2023-04-26T13:12:14;96310.63;;;17.79;41.12
57644;BME280;43474;46.510;6.686;2023-04-26T13:14:40;96308.38;;;17.33;41.36
57644;BME280;43474;46.510;6.686;2023-04-26T13:17:05;96313.50;;;17.29;44.52